createdAt,value
2018-01-01T00:00:18.818Z,981.48
2018-01-01T00:01:18.818Z,981.49
2018-01-01T00:02:18.808Z,981.52
2018-01-01T00:03:18.806Z,981.56
2018-01-01T00:04:18.803Z,981.67
2018-01-01T00:05:18.783Z,981.66
2018-01-01T00:06:18.779Z,981.72
2018-01-01T00:07:18.774Z,981.75
2018-01-01T00:08:18.770Z,981.76
2018-01-01T00:09:18.768Z,981.81
2018-01-01T00:10:18.766Z,981.77
2018-01-01T00:11:18.758Z,981.8
2018-01-01T00:12:18.765Z,981.68
2018-01-01T00:13:18.761Z,981.65
2018-01-01T00:14:18.749Z,981.62
2018-01-01T00:15:18.754Z,981.6
2018-01-01T00:16:18.740Z,981.51
2018-01-01T00:17:18.748Z,981.52
2018-01-01T00:18:18.734Z,981.59
2018-01-01T00:19:18.729Z,981.6
2018-01-01T00:20:18.722Z,981.63
2018-01-01T00:21:18.716Z,981.58
2018-01-01T00:22:18.715Z,981.58
2018-01-01T00:23:18.716Z,981.59
2018-01-01T00:24:18.713Z,981.62
2018-01-01T00:25:18.702Z,981.64
2018-01-01T00:26:18.695Z,981.7
2018-01-01T00:27:18.692Z,981.74
2018-01-01T00:28:18.688Z,981.76
2018-01-01T00:29:18.687Z,981.78
2018-01-01T00:30:18.697Z,981.8
2018-01-01T00:31:18.676Z,981.78
2018-01-01T00:32:18.676Z,981.75
2018-01-01T00:33:18.669Z,981.79
2018-01-01T00:34:18.664Z,981.82
2018-01-01T00:35:18.663Z,981.82
2018-01-01T00:36:18.657Z,981.81
2018-01-01T00:37:18.653Z,981.86
2018-01-01T00:38:18.649Z,981.89
2018-01-01T00:39:18.646Z,981.89
2018-01-01T00:40:18.642Z,981.89
2018-01-01T00:41:18.638Z,981.91
2018-01-01T00:42:18.637Z,981.95
2018-01-01T00:43:18.636Z,981.9
2018-01-01T00:44:18.656Z,981.93
2018-01-01T00:45:18.627Z,981.92
2018-01-01T00:46:18.619Z,981.99
2018-01-01T00:47:18.614Z,981.96
2018-01-01T00:48:18.612Z,982
2018-01-01T00:49:18.606Z,982.01
2018-01-01T00:50:18.609Z,982.04
2018-01-01T00:51:18.600Z,982.1
2018-01-01T00:52:18.593Z,982.12
2018-01-01T00:53:18.590Z,982.25
2018-01-01T00:54:18.589Z,982.2
2018-01-01T00:55:18.586Z,982.27
2018-01-01T00:56:18.583Z,982.21
2018-01-01T00:57:18.593Z,982.19
2018-01-01T00:58:18.570Z,982.2
2018-01-01T00:59:18.566Z,982.31
2018-01-01T01:00:18.561Z,982.37
2018-01-01T01:01:18.557Z,982.41
2018-01-01T01:02:18.554Z,982.4
2018-01-01T01:03:18.548Z,982.46
2018-01-01T01:04:18.547Z,982.48
2018-01-01T01:05:18.540Z,982.49
2018-01-01T01:06:18.537Z,982.5
2018-01-01T01:07:18.532Z,982.52
2018-01-01T01:08:18.528Z,982.51
2018-01-01T01:09:18.525Z,982.55
2018-01-01T01:10:18.521Z,982.59
2018-01-01T01:11:18.516Z,982.59
2018-01-01T01:12:18.513Z,982.56
2018-01-01T01:13:18.508Z,982.55
2018-01-01T01:14:18.506Z,982.55
2018-01-01T01:15:20.301Z,982.53
2018-01-01T01:16:18.496Z,982.52
2018-01-01T01:17:18.489Z,982.53
2018-01-01T01:18:18.486Z,982.5
2018-01-01T01:19:18.483Z,982.59
2018-01-01T01:20:18.478Z,982.51
2018-01-01T01:21:18.539Z,982.53
2018-01-01T01:22:18.470Z,982.55
2018-01-01T01:23:18.485Z,982.44
2018-01-01T01:24:18.462Z,982.5
2018-01-01T01:25:18.456Z,982.5
2018-01-01T01:26:18.479Z,982.49
2018-01-01T01:27:18.482Z,982.41
2018-01-01T01:28:18.445Z,982.54
2018-01-01T01:29:18.439Z,982.43
2018-01-01T01:30:18.441Z,982.5
2018-01-01T01:31:18.434Z,982.43
2018-01-01T01:32:18.427Z,982.56
2018-01-01T01:33:18.423Z,982.57
2018-01-01T01:34:18.419Z,982.55
2018-01-01T01:35:18.416Z,982.56
2018-01-01T01:36:18.412Z,982.68
2018-01-01T01:37:18.405Z,982.66
2018-01-01T01:38:18.407Z,982.65
2018-01-01T01:39:18.403Z,982.65
2018-01-01T01:40:18.396Z,982.67
2018-01-01T01:41:18.393Z,982.56
2018-01-01T01:42:18.386Z,982.64
2018-01-01T01:43:18.381Z,982.64
2018-01-01T01:44:18.381Z,982.64
2018-01-01T01:45:18.381Z,982.57
2018-01-01T01:46:18.367Z,982.59
2018-01-01T01:47:18.362Z,982.6
2018-01-01T01:48:18.363Z,982.55
2018-01-01T01:49:18.372Z,982.54
2018-01-01T01:50:18.367Z,982.63
2018-01-01T01:51:18.345Z,982.67
2018-01-01T01:52:18.349Z,982.62
2018-01-01T01:53:18.339Z,982.6
2018-01-01T01:54:18.331Z,982.66
2018-01-01T01:55:18.326Z,982.66
2018-01-01T01:56:18.325Z,982.59
2018-01-01T01:57:18.320Z,982.55
2018-01-01T01:58:18.313Z,982.51
2018-01-01T01:59:18.309Z,982.51
2018-01-01T02:00:18.305Z,982.47
2018-01-01T02:01:18.301Z,982.5
2018-01-01T02:02:18.296Z,982.51
2018-01-01T02:03:18.291Z,982.52
2018-01-01T02:04:18.294Z,982.47
2018-01-01T02:05:18.285Z,982.46
2018-01-01T02:06:18.278Z,982.44
2018-01-01T02:07:18.280Z,982.36
2018-01-01T02:08:18.280Z,982.27
2018-01-01T02:09:18.265Z,982.4
2018-01-01T02:10:18.261Z,982.45
2018-01-01T02:11:18.256Z,982.42
2018-01-01T02:12:18.251Z,982.33
2018-01-01T02:13:18.247Z,982.35
2018-01-01T02:14:18.242Z,982.27
2018-01-01T02:15:18.238Z,982.36
2018-01-01T02:16:18.234Z,982.38
2018-01-01T02:17:18.229Z,982.44
2018-01-01T02:18:18.226Z,982.5
2018-01-01T02:19:18.225Z,982.42
2018-01-01T02:20:18.224Z,982.5
2018-01-01T02:21:18.228Z,982.45
2018-01-01T02:22:18.206Z,982.47
2018-01-01T02:23:18.200Z,982.53
2018-01-01T02:24:18.195Z,982.49
2018-01-01T02:25:18.195Z,982.5
2018-01-01T02:26:18.186Z,982.52
2018-01-01T02:27:18.181Z,982.56
2018-01-01T02:28:18.176Z,982.56
2018-01-01T02:29:18.174Z,982.54
2018-01-01T02:30:18.174Z,982.51
2018-01-01T02:31:18.162Z,982.53
2018-01-01T02:32:18.158Z,982.54
2018-01-01T02:33:18.153Z,982.56
2018-01-01T02:34:18.148Z,982.58
2018-01-01T02:35:18.147Z,982.5
2018-01-01T02:36:18.154Z,982.49
2018-01-01T02:37:18.151Z,982.54
2018-01-01T02:38:18.130Z,982.57
2018-01-01T02:39:18.125Z,982.53
2018-01-01T02:40:18.120Z,982.57
2018-01-01T02:41:18.117Z,982.6
2018-01-01T02:42:18.113Z,982.59
2018-01-01T02:43:18.109Z,982.69
2018-01-01T02:44:18.103Z,982.65
2018-01-01T02:45:18.125Z,982.7
2018-01-01T02:46:18.100Z,982.77
2018-01-01T02:47:18.089Z,982.87
2018-01-01T02:48:18.084Z,982.83
2018-01-01T02:49:18.078Z,982.88
2018-01-01T02:50:18.641Z,982.85
2018-01-01T02:51:18.068Z,982.89
2018-01-01T02:52:18.064Z,982.99
2018-01-01T02:53:18.059Z,982.9
2018-01-01T02:54:18.054Z,982.89
2018-01-01T02:55:18.052Z,982.86
2018-01-01T02:56:18.045Z,982.97
2018-01-01T02:57:18.041Z,982.95
2018-01-01T02:58:18.036Z,982.89
2018-01-01T02:59:18.031Z,982.9
2018-01-01T03:00:18.026Z,982.85
2018-01-01T03:01:18.021Z,982.93
2018-01-01T03:02:18.017Z,982.89
2018-01-01T03:03:18.015Z,982.93
2018-01-01T03:04:18.016Z,982.92
2018-01-01T03:05:18.011Z,983.01
2018-01-01T03:06:17.998Z,982.97
2018-01-01T03:07:17.994Z,983.02
2018-01-01T03:08:17.989Z,982.93
2018-01-01T03:09:17.983Z,982.91
2018-01-01T03:10:17.978Z,982.88
2018-01-01T03:11:17.973Z,982.84
2018-01-01T03:12:17.970Z,982.84
2018-01-01T03:13:17.963Z,982.85
2018-01-01T03:14:17.963Z,982.83
2018-01-01T03:15:18.051Z,982.94
2018-01-01T03:16:17.958Z,982.89
2018-01-01T03:17:17.944Z,982.95
2018-01-01T03:18:17.939Z,982.95
2018-01-01T03:19:17.934Z,983.01
2018-01-01T03:20:17.930Z,983.01
2018-01-01T03:21:17.924Z,983.03
2018-01-01T03:22:17.921Z,983.08
2018-01-01T03:23:17.914Z,983.04
2018-01-01T03:24:17.912Z,982.96
2018-01-01T03:25:17.914Z,982.98
2018-01-01T03:26:17.899Z,982.98
2018-01-01T03:27:17.897Z,982.95
2018-01-01T03:28:17.890Z,982.92
2018-01-01T03:29:17.884Z,982.89
2018-01-01T03:30:17.880Z,982.86
2018-01-01T03:31:18.025Z,982.87
2018-01-01T03:32:17.870Z,982.88
2018-01-01T03:33:17.866Z,982.89
2018-01-01T03:34:17.867Z,982.84
2018-01-01T03:35:17.863Z,982.85
2018-01-01T03:36:17.861Z,982.87
2018-01-01T03:37:17.845Z,982.83
2018-01-01T03:38:17.844Z,982.77
2018-01-01T03:39:17.841Z,982.87
2018-01-01T03:40:17.830Z,982.88
2018-01-01T03:41:17.825Z,982.84
2018-01-01T03:42:17.823Z,982.86
2018-01-01T03:43:17.817Z,982.81
2018-01-01T03:44:17.810Z,982.86
2018-01-01T03:45:17.806Z,982.91
2018-01-01T03:46:17.802Z,982.9
2018-01-01T03:47:17.796Z,982.85
2018-01-01T03:48:17.793Z,982.87
2018-01-01T03:49:17.789Z,982.91
2018-01-01T03:50:17.788Z,982.87
2018-01-01T03:51:17.777Z,982.86
2018-01-01T03:52:17.772Z,982.91
2018-01-01T03:53:17.768Z,982.91
2018-01-01T03:54:17.762Z,982.89
2018-01-01T03:55:17.758Z,982.91
2018-01-01T03:56:17.753Z,982.91
2018-01-01T03:57:17.749Z,982.9
2018-01-01T03:58:17.745Z,982.88
2018-01-01T03:59:17.743Z,982.93
2018-01-01T04:00:17.743Z,982.96
2018-01-01T04:01:17.736Z,983.03
2018-01-01T04:02:17.723Z,982.99
2018-01-01T04:03:17.718Z,982.87
2018-01-01T04:04:17.713Z,982.99
2018-01-01T04:05:17.709Z,983.01
2018-01-01T04:06:17.704Z,982.99
2018-01-01T04:07:17.698Z,983
2018-01-01T04:08:17.699Z,982.93
2018-01-01T04:09:17.689Z,983.05
2018-01-01T04:10:17.689Z,983.02
2018-01-01T04:11:17.688Z,983.08
2018-01-01T04:12:17.675Z,983
2018-01-01T04:13:17.668Z,982.95
2018-01-01T04:14:17.663Z,983
2018-01-01T04:15:17.662Z,982.97
2018-01-01T04:16:17.653Z,982.98
2018-01-01T04:17:17.650Z,983.04
2018-01-01T04:18:17.644Z,982.97
2018-01-01T04:19:17.639Z,983.04
2018-01-01T04:20:17.634Z,983
2018-01-01T04:21:17.631Z,983.08
2018-01-01T04:22:17.625Z,983.1
2018-01-01T04:23:17.622Z,983.1
2018-01-01T04:24:17.614Z,983.16
2018-01-01T04:25:17.645Z,983.1
2018-01-01T04:26:17.603Z,983.06
2018-01-01T04:27:17.602Z,983.1
2018-01-01T04:28:17.594Z,983.17
2018-01-01T04:29:17.591Z,983.15
2018-01-01T04:30:17.584Z,983.18
2018-01-01T04:31:17.979Z,983.24
2018-01-01T04:32:17.575Z,983.2
2018-01-01T04:33:17.573Z,983.25
2018-01-01T04:34:17.566Z,983.32
2018-01-01T04:35:17.559Z,983.35
2018-01-01T04:36:18.356Z,983.23
2018-01-01T04:37:17.552Z,983.32
2018-01-01T04:38:17.545Z,983.29
2018-01-01T04:39:17.541Z,983.34
2018-01-01T04:40:17.612Z,983.31
2018-01-01T04:41:17.529Z,983.28
2018-01-01T04:42:17.523Z,983.31
2018-01-01T04:43:17.519Z,983.22
2018-01-01T04:44:17.514Z,983.29
2018-01-01T04:45:17.510Z,983.32
2018-01-01T04:46:17.503Z,983.33
2018-01-01T04:47:17.499Z,983.36
2018-01-01T04:48:17.494Z,983.36
2018-01-01T04:49:17.488Z,983.49
2018-01-01T04:50:17.484Z,983.48
2018-01-01T04:51:17.481Z,983.49
2018-01-01T04:52:17.477Z,983.55
2018-01-01T04:53:17.479Z,983.53
2018-01-01T04:54:17.476Z,983.56
2018-01-01T04:55:17.498Z,983.59
2018-01-01T04:56:17.454Z,983.72
2018-01-01T04:57:17.454Z,983.68
2018-01-01T04:58:17.445Z,983.69
2018-01-01T04:59:17.439Z,983.66
2018-01-01T05:00:17.437Z,983.7
2018-01-01T05:01:17.428Z,983.71
2018-01-01T05:02:17.460Z,983.74
2018-01-01T05:03:17.430Z,983.74
2018-01-01T05:04:17.423Z,983.73
2018-01-01T05:05:17.423Z,983.77
2018-01-01T05:06:17.404Z,983.76
2018-01-01T05:07:17.406Z,983.79
2018-01-01T05:08:17.393Z,983.76
2018-01-01T05:09:17.388Z,983.75
2018-01-01T05:10:17.383Z,983.71
2018-01-01T05:11:17.377Z,983.79
2018-01-01T05:12:17.421Z,983.67
2018-01-01T05:13:17.372Z,983.65
2018-01-01T05:14:17.363Z,983.73
2018-01-01T05:15:17.358Z,983.71
2018-01-01T05:16:17.352Z,983.71
2018-01-01T05:17:17.349Z,983.79
2018-01-01T05:18:17.344Z,983.75
2018-01-01T05:19:17.336Z,983.75
2018-01-01T05:20:17.334Z,983.65
2018-01-01T05:21:17.328Z,983.67
2018-01-01T05:22:17.322Z,983.79
2018-01-01T05:23:17.319Z,983.82
2018-01-01T05:24:17.311Z,983.86
2018-01-01T05:25:17.307Z,983.87
2018-01-01T05:26:17.304Z,983.77
2018-01-01T05:27:17.297Z,983.79
2018-01-01T05:28:17.292Z,983.85
2018-01-01T05:29:17.288Z,983.88
2018-01-01T05:30:17.283Z,983.8
2018-01-01T05:31:17.277Z,983.8
2018-01-01T05:32:17.271Z,983.83
2018-01-01T05:33:17.265Z,983.88
2018-01-01T05:34:17.262Z,983.87
2018-01-01T05:35:17.255Z,983.9
2018-01-01T05:36:17.256Z,983.85
2018-01-01T05:37:17.247Z,983.88
2018-01-01T05:38:17.239Z,983.9
2018-01-01T05:39:17.235Z,983.99
2018-01-01T05:40:17.231Z,983.99
2018-01-01T05:41:17.225Z,983.96
2018-01-01T05:42:17.219Z,984.09
2018-01-01T05:43:17.216Z,984.1
2018-01-01T05:44:17.209Z,984.15
2018-01-01T05:45:17.207Z,984.18
2018-01-01T05:46:17.203Z,984.18
2018-01-01T05:47:17.198Z,984.1
2018-01-01T05:48:17.196Z,984.21
2018-01-01T05:49:17.182Z,984.21
2018-01-01T05:50:17.178Z,984.2
2018-01-01T05:51:17.173Z,984.15
2018-01-01T05:52:17.168Z,984.18
2018-01-01T05:53:17.166Z,984.25
2018-01-01T05:54:17.158Z,984.21
2018-01-01T05:55:17.514Z,984.19
2018-01-01T05:56:17.154Z,984.25
2018-01-01T05:57:17.150Z,984.3
2018-01-01T05:58:17.137Z,984.31
2018-01-01T05:59:17.140Z,984.31
2018-01-01T06:00:17.126Z,984.33
2018-01-01T06:01:17.122Z,984.27
2018-01-01T06:02:19.518Z,984.32
2018-01-01T06:03:17.112Z,984.32
2018-01-01T06:04:17.106Z,984.27
2018-01-01T06:05:17.101Z,984.36
2018-01-01T06:06:17.101Z,984.37
2018-01-01T06:07:17.101Z,984.42
2018-01-01T06:08:17.085Z,984.41
2018-01-01T06:09:17.083Z,984.42
2018-01-01T06:10:17.075Z,984.45
2018-01-01T06:11:17.070Z,984.46
2018-01-01T06:12:17.067Z,984.5
2018-01-01T06:13:17.061Z,984.48
2018-01-01T06:14:17.054Z,984.58
2018-01-01T06:15:17.053Z,984.6
2018-01-01T06:16:17.044Z,984.65
2018-01-01T06:17:17.045Z,984.65
2018-01-01T06:18:17.044Z,984.65
2018-01-01T06:19:17.028Z,984.69
2018-01-01T06:20:17.024Z,984.73
2018-01-01T06:21:17.020Z,984.72
2018-01-01T06:22:17.016Z,984.59
2018-01-01T06:23:17.008Z,984.6
2018-01-01T06:24:17.008Z,984.58
2018-01-01T06:25:16.997Z,984.58
2018-01-01T06:26:16.994Z,984.54
2018-01-01T06:27:16.989Z,984.61
2018-01-01T06:28:16.983Z,984.65
2018-01-01T06:29:16.977Z,984.66
2018-01-01T06:30:16.970Z,984.72
2018-01-01T06:31:16.969Z,984.76
2018-01-01T06:32:16.960Z,984.75
2018-01-01T06:33:16.955Z,984.72
2018-01-01T06:34:16.950Z,984.75
2018-01-01T06:35:16.968Z,984.74
2018-01-01T06:36:16.944Z,984.74
2018-01-01T06:37:16.942Z,984.76
2018-01-01T06:38:16.936Z,984.8
2018-01-01T06:39:16.921Z,984.74
2018-01-01T06:40:16.924Z,984.79
2018-01-01T06:41:16.912Z,984.66
2018-01-01T06:42:16.907Z,984.65
2018-01-01T06:43:16.899Z,984.79
2018-01-01T06:44:16.897Z,984.77
2018-01-01T06:45:16.894Z,984.82
2018-01-01T06:46:16.884Z,984.81
2018-01-01T06:47:16.889Z,984.8
2018-01-01T06:48:16.871Z,984.76
2018-01-01T06:49:16.864Z,984.86
2018-01-01T06:50:16.858Z,984.82
2018-01-01T06:51:16.856Z,984.88
2018-01-01T06:52:16.854Z,984.78
2018-01-01T06:53:16.849Z,984.8
2018-01-01T06:54:16.843Z,984.82
2018-01-01T06:55:16.851Z,984.8
2018-01-01T06:56:16.841Z,984.79
2018-01-01T06:57:16.816Z,984.72
2018-01-01T06:58:16.814Z,984.77
2018-01-01T06:59:16.813Z,984.66
2018-01-01T07:00:16.799Z,984.68
2018-01-01T07:01:16.810Z,984.63
2018-01-01T07:02:16.788Z,984.72
2018-01-01T07:03:16.795Z,984.74
2018-01-01T07:04:16.786Z,984.72
2018-01-01T07:05:16.772Z,984.68
2018-01-01T07:06:16.764Z,984.7
2018-01-01T07:07:16.764Z,984.73
2018-01-01T07:08:16.760Z,984.67
2018-01-01T07:09:16.755Z,984.72
2018-01-01T07:10:16.742Z,984.68
2018-01-01T07:11:16.733Z,984.69
2018-01-01T07:12:16.736Z,984.71
2018-01-01T07:13:16.721Z,984.7
2018-01-01T07:14:16.716Z,984.73
2018-01-01T07:15:16.717Z,984.69
2018-01-01T07:16:16.702Z,984.61
2018-01-01T07:17:16.703Z,984.65
2018-01-01T07:18:16.691Z,984.74
2018-01-01T07:19:16.683Z,984.72
2018-01-01T07:20:16.679Z,984.83
2018-01-01T07:21:16.677Z,984.77
2018-01-01T07:22:16.668Z,984.82
2018-01-01T07:23:16.660Z,984.79
2018-01-01T07:24:16.656Z,984.81
2018-01-01T07:25:16.650Z,984.86
2018-01-01T07:26:16.646Z,984.84
2018-01-01T07:27:16.670Z,984.88
2018-01-01T07:28:16.643Z,984.88
2018-01-01T07:29:16.627Z,984.92
2018-01-01T07:30:16.630Z,984.89
2018-01-01T07:31:16.616Z,984.82
2018-01-01T07:32:16.607Z,984.82
2018-01-01T07:33:16.602Z,984.92
2018-01-01T07:34:16.597Z,984.99
2018-01-01T07:35:16.629Z,984.93
2018-01-01T07:36:16.584Z,985.02
2018-01-01T07:37:16.577Z,984.97
2018-01-01T07:38:16.575Z,984.98
2018-01-01T07:39:16.565Z,984.97
2018-01-01T07:40:16.560Z,985.07
2018-01-01T07:41:16.553Z,985.11
2018-01-01T07:42:16.547Z,985.15
2018-01-01T07:43:16.542Z,985.21
2018-01-01T07:44:16.537Z,985.24
2018-01-01T07:45:16.529Z,985.23
2018-01-01T07:46:16.528Z,985.24
2018-01-01T07:47:16.516Z,985.15
2018-01-01T07:48:16.511Z,985.2
2018-01-01T07:49:16.503Z,985.18
2018-01-01T07:50:16.498Z,985.22
2018-01-01T07:51:16.492Z,985.24
2018-01-01T07:52:16.485Z,985.31
2018-01-01T07:53:16.479Z,985.26
2018-01-01T07:54:16.474Z,985.23
2018-01-01T07:55:16.547Z,985.25
2018-01-01T07:56:16.461Z,985.3
2018-01-01T07:57:16.455Z,985.36
2018-01-01T07:58:16.449Z,985.37
2018-01-01T07:59:16.442Z,985.38
2018-01-01T08:00:16.450Z,985.33
2018-01-01T08:01:16.431Z,985.29
2018-01-01T08:02:16.434Z,985.3
2018-01-01T08:03:17.471Z,985.34
2018-01-01T08:04:16.424Z,985.38
2018-01-01T08:05:16.451Z,985.42
2018-01-01T08:06:16.400Z,985.45
2018-01-01T08:07:16.394Z,985.51
2018-01-01T08:08:16.388Z,985.55
2018-01-01T08:09:16.382Z,985.57
2018-01-01T08:10:16.381Z,985.53
2018-01-01T08:11:16.376Z,985.62
2018-01-01T08:12:16.365Z,985.59
2018-01-01T08:13:16.361Z,985.64
2018-01-01T08:14:16.360Z,985.61
2018-01-01T08:15:16.345Z,985.65
2018-01-01T08:16:16.341Z,985.65
2018-01-01T08:17:16.334Z,985.57
2018-01-01T08:18:16.327Z,985.65
2018-01-01T08:19:16.321Z,985.56
2018-01-01T08:20:16.316Z,985.56
2018-01-01T08:21:16.325Z,985.58
2018-01-01T08:22:16.303Z,985.64
2018-01-01T08:23:16.297Z,985.69
2018-01-01T08:24:16.291Z,985.7
2018-01-01T08:25:16.286Z,985.64
2018-01-01T08:26:16.280Z,985.76
2018-01-01T08:27:16.273Z,985.78
2018-01-01T08:28:16.267Z,985.79
2018-01-01T08:29:16.259Z,985.8
2018-01-01T08:30:16.257Z,985.76
2018-01-01T08:31:16.249Z,985.77
2018-01-01T08:32:16.240Z,985.83
2018-01-01T08:33:16.236Z,985.85
2018-01-01T08:34:16.241Z,985.86
2018-01-01T08:35:16.234Z,985.85
2018-01-01T08:36:16.217Z,985.93
2018-01-01T08:37:16.262Z,985.92
2018-01-01T08:38:16.206Z,985.99
2018-01-01T08:39:16.200Z,985.97
2018-01-01T08:40:16.277Z,985.92
2018-01-01T08:41:16.188Z,985.92
2018-01-01T08:42:16.187Z,985.93
2018-01-01T08:43:16.178Z,985.92
2018-01-01T08:44:16.169Z,985.9
2018-01-01T08:45:16.166Z,985.83
2018-01-01T08:46:16.172Z,985.84
2018-01-01T08:47:16.153Z,985.78
2018-01-01T08:48:16.154Z,985.8
2018-01-01T08:49:16.142Z,985.78
2018-01-01T08:50:16.140Z,985.72
2018-01-01T08:51:16.133Z,985.72
2018-01-01T08:52:16.136Z,985.74
2018-01-01T08:53:16.123Z,985.83
2018-01-01T08:54:16.112Z,985.81
2018-01-01T08:55:16.106Z,985.78
2018-01-01T08:56:16.101Z,985.75
2018-01-01T08:57:16.095Z,985.76
2018-01-01T08:58:16.089Z,985.73
2018-01-01T08:59:16.084Z,985.76
2018-01-01T09:00:16.563Z,985.72
2018-01-01T09:01:16.073Z,985.72
2018-01-01T09:02:16.072Z,985.77
2018-01-01T09:03:16.063Z,985.72
2018-01-01T09:04:16.056Z,985.68
2018-01-01T09:05:16.050Z,985.67
2018-01-01T09:06:16.045Z,985.72
2018-01-01T09:07:16.044Z,985.7
2018-01-01T09:08:16.034Z,985.64
2018-01-01T09:09:16.028Z,985.69
2018-01-01T09:10:16.023Z,985.74
2018-01-01T09:11:16.020Z,985.82
2018-01-01T09:12:16.013Z,985.82
2018-01-01T09:13:16.006Z,985.85
2018-01-01T09:14:16.001Z,985.82
2018-01-01T09:15:15.995Z,985.89
2018-01-01T09:16:15.989Z,985.99
2018-01-01T09:17:16.018Z,986
2018-01-01T09:18:15.978Z,986.05
2018-01-01T09:19:15.973Z,986.02
2018-01-01T09:20:15.976Z,986.13
2018-01-01T09:21:15.972Z,986.18
2018-01-01T09:22:15.958Z,986.23
2018-01-01T09:23:15.953Z,986.24
2018-01-01T09:24:15.948Z,986.23
2018-01-01T09:25:15.959Z,986.23
2018-01-01T09:26:15.936Z,986.22
2018-01-01T09:27:15.930Z,986.24
2018-01-01T09:28:15.925Z,986.28
2018-01-01T09:29:17.522Z,986.26
2018-01-01T09:30:15.924Z,986.26
2018-01-01T09:31:15.915Z,986.23
2018-01-01T09:32:15.914Z,986.26
2018-01-01T09:33:15.904Z,986.27
2018-01-01T09:34:15.894Z,986.32
2018-01-01T09:35:16.088Z,986.28
2018-01-01T09:36:15.884Z,986.34
2018-01-01T09:37:15.880Z,986.27
2018-01-01T09:38:15.875Z,986.31
2018-01-01T09:39:15.867Z,986.27
2018-01-01T09:40:15.974Z,986.29
2018-01-01T09:41:15.857Z,986.27
2018-01-01T09:42:15.851Z,986.21
2018-01-01T09:43:15.846Z,986.17
2018-01-01T09:44:15.844Z,986.28
2018-01-01T09:45:15.837Z,986.24
2018-01-01T09:46:15.835Z,986.17
2018-01-01T09:47:15.826Z,986.22
2018-01-01T09:48:15.821Z,986.21
2018-01-01T09:49:15.816Z,986.13
2018-01-01T09:50:15.811Z,986.14
2018-01-01T09:51:15.807Z,986.08
2018-01-01T09:52:15.802Z,986.06
2018-01-01T09:53:15.797Z,986.12
2018-01-01T09:54:15.790Z,986.11
2018-01-01T09:55:15.786Z,986.08
2018-01-01T09:56:15.781Z,986.04
2018-01-01T09:57:15.775Z,986.1
2018-01-01T09:58:15.770Z,985.93
2018-01-01T09:59:15.766Z,985.94
2018-01-01T10:00:15.761Z,985.89
2018-01-01T10:01:15.757Z,985.91
2018-01-01T10:02:15.751Z,985.91
2018-01-01T10:03:15.746Z,985.91
2018-01-01T10:04:15.739Z,985.89
2018-01-01T10:05:15.736Z,985.97
2018-01-01T10:06:15.731Z,985.94
2018-01-01T10:07:15.729Z,985.95
2018-01-01T10:08:15.723Z,985.87
2018-01-01T10:09:15.715Z,985.9
2018-01-01T10:10:15.712Z,985.82
2018-01-01T10:11:15.706Z,985.83
2018-01-01T10:12:15.702Z,985.87
2018-01-01T10:13:15.698Z,985.84
2018-01-01T10:14:15.698Z,985.77
2018-01-01T10:15:15.688Z,985.76
2018-01-01T10:16:15.683Z,985.73
2018-01-01T10:17:15.679Z,985.69
2018-01-01T10:18:15.673Z,985.6
2018-01-01T10:19:15.672Z,985.63
2018-01-01T10:20:15.667Z,985.56
2018-01-01T10:21:15.667Z,985.53
2018-01-01T10:22:15.657Z,985.55
2018-01-01T10:52:36.803Z,985.04
2018-01-01T10:53:35.185Z,984.98
2018-01-01T10:54:35.174Z,984.99
2018-01-01T10:55:35.165Z,985.03
2018-01-01T10:56:35.159Z,985.03
2018-01-01T10:57:35.145Z,985
2018-01-01T10:58:35.137Z,985.05
2018-01-01T10:59:35.131Z,985.1
2018-01-01T11:00:35.123Z,984.96
2018-01-01T11:01:35.117Z,985
2018-01-01T11:02:35.112Z,984.94
2018-01-01T11:03:35.103Z,984.96
2018-01-01T11:04:35.108Z,984.88
2018-01-01T11:05:35.119Z,984.82
2018-01-01T11:06:35.086Z,984.8
2018-01-01T11:07:35.082Z,984.73
2018-01-01T11:08:35.075Z,984.68
2018-01-01T11:09:35.069Z,984.67
2018-01-01T11:10:35.064Z,984.66
2018-01-01T11:11:35.064Z,984.75
2018-01-01T11:12:35.062Z,984.72
2018-01-01T11:13:35.049Z,984.57
2018-01-01T11:14:35.045Z,984.64
2018-01-01T11:15:35.041Z,984.57
2018-01-01T11:16:35.038Z,984.51
2018-01-01T11:17:35.037Z,984.55
2018-01-01T11:18:35.028Z,984.51
2018-01-01T11:19:35.022Z,984.53
2018-01-01T11:20:35.021Z,984.5
2018-01-01T11:21:35.014Z,984.58
2018-01-01T11:22:35.008Z,984.41
2018-01-01T11:23:35.007Z,984.38
2018-01-01T11:24:35.003Z,984.41
2018-01-01T11:25:34.996Z,984.35
2018-01-01T11:26:34.992Z,984.31
2018-01-01T11:27:34.991Z,984.32
2018-01-01T11:28:34.985Z,984.23
2018-01-01T11:29:34.987Z,984.16
2018-01-01T11:30:34.975Z,984.19
2018-01-01T11:31:34.972Z,984.1
2018-01-01T11:32:34.967Z,984.11
2018-01-01T11:33:34.965Z,984.08
2018-01-01T11:34:34.959Z,983.97
2018-01-01T11:35:34.954Z,984
2018-01-01T11:36:34.950Z,983.91
2018-01-01T11:37:34.948Z,983.92
2018-01-01T11:38:34.945Z,983.79
2018-01-01T11:39:34.951Z,983.8
2018-01-01T11:40:34.936Z,983.78
2018-01-01T11:41:34.936Z,983.81
2018-01-01T11:42:34.937Z,983.87
2018-01-01T11:43:34.930Z,983.89
2018-01-01T11:44:34.938Z,983.71
2018-01-01T11:45:34.916Z,983.75
2018-01-01T11:46:34.911Z,983.75
2018-01-01T11:47:34.911Z,983.62
2018-01-01T11:48:34.903Z,983.65
2018-01-01T11:49:34.899Z,983.64
2018-01-01T11:50:34.905Z,983.57
2018-01-01T11:51:34.889Z,983.55
2018-01-01T11:52:34.885Z,983.62
2018-01-01T11:53:34.882Z,983.48
2018-01-01T11:54:34.877Z,983.63
2018-01-01T11:55:34.891Z,983.51
2018-01-01T11:56:34.870Z,983.57
2018-01-01T11:57:34.923Z,983.48
2018-01-01T11:58:34.863Z,983.54
2018-01-01T11:59:34.856Z,983.41
2018-01-01T12:00:34.859Z,983.46
2018-01-01T12:01:34.848Z,983.35
2018-01-01T12:02:34.845Z,983.42
2018-01-01T12:03:34.840Z,983.38
2018-01-01T12:04:34.836Z,983.3
2018-01-01T12:05:34.843Z,983.32
2018-01-01T12:06:34.846Z,983.25
2018-01-01T12:07:34.826Z,983.06
2018-01-01T12:08:34.818Z,983.15
2018-01-01T12:09:34.826Z,983.09
2018-01-01T12:10:34.811Z,983.08
2018-01-01T12:11:34.809Z,983.05
2018-01-01T12:12:34.801Z,982.98
2018-01-01T12:13:34.797Z,982.98
2018-01-01T12:14:34.793Z,982.97
2018-01-01T12:15:34.804Z,982.93
2018-01-01T12:16:34.786Z,982.77
2018-01-01T12:17:34.812Z,982.77
2018-01-01T12:18:34.777Z,982.76
2018-01-01T12:19:34.784Z,982.75
2018-01-01T12:20:34.775Z,982.7
2018-01-01T12:21:34.765Z,982.61
2018-01-01T12:22:34.773Z,982.51
2018-01-01T12:23:34.768Z,982.44
2018-01-01T12:24:34.753Z,982.55
2018-01-01T12:25:34.760Z,982.45
2018-01-01T12:26:34.744Z,982.38
2018-01-01T12:27:34.739Z,982.4
2018-01-01T12:28:34.750Z,982.31
2018-01-01T12:29:34.733Z,982.21
2018-01-01T12:30:34.728Z,982.14
2018-01-01T12:31:34.726Z,982.14
2018-01-01T12:32:34.737Z,982.11
2018-01-01T12:33:34.726Z,982.07
2018-01-01T12:34:34.711Z,982.01
2018-01-01T12:35:34.722Z,981.87
2018-01-01T12:36:34.715Z,981.73
2018-01-01T12:37:34.700Z,981.89
2018-01-01T12:38:34.706Z,981.87
2018-01-01T12:39:34.704Z,981.78
2018-01-01T12:40:34.693Z,981.69
2018-01-01T12:41:34.693Z,981.76
2018-01-01T12:42:34.689Z,981.59
2018-01-01T12:43:34.686Z,981.66
2018-01-01T12:44:34.686Z,981.77
2018-01-01T12:45:34.678Z,981.7
2018-01-01T12:46:34.660Z,981.72
2018-01-01T12:47:34.659Z,981.74
2018-01-01T12:48:34.656Z,981.66
2018-01-01T12:49:34.649Z,981.66
2018-01-01T12:50:34.643Z,981.57
2018-01-01T12:51:34.651Z,981.58
2018-01-01T12:52:34.634Z,981.63
2018-01-01T12:53:34.842Z,981.6
2018-01-01T12:54:34.640Z,981.63
2018-01-01T12:55:34.622Z,981.62
2018-01-01T12:56:34.616Z,981.59
2018-01-01T12:57:34.613Z,981.63
2018-01-01T12:58:34.621Z,981.53
2018-01-01T12:59:34.606Z,981.5
2018-01-01T13:00:34.613Z,981.55